sensor_id;sensor_type;location;lat;lon;timestamp;P1;durP1;ratioP1;P2;durP2;ratioP2
26375;SDS011;30544;42.196;24.336;2023-03-01T00:01:32;14.80;;;11.07;;
26375;SDS011;30544;42.196;24.336;2023-03-01T00:03:59;13.63;;;11.18;;
26375;SDS011;30544;42.196;24.336;2023-03-01T00:06:26;16.10;;;12.43;;
26375;SDS011;30544;42.196;24.336;2023-03-01T00:08:54;16.73;;;12.32;;
26375;SDS011;30544;42.196;24.336;2023-03-01T00:11:23;11.93;;;9.15;;
26375;SDS011;30544;42.196;24.336;2023-03-01T00:13:52;12.00;;;9.48;;
26375;SDS011;30544;42.196;24.336;2023-03-01T00:16:24;11.50;;;8.70;;
26375;SDS011;30544;42.196;24.336;2023-03-01T00:18:53;10.55;;;7.63;;
26375;SDS011;30544;42.196;24.336;2023-03-01T00:21:20;9.40;;;7.30;;
26375;SDS011;30544;42.196;24.336;2023-03-01T00:23:48;9.45;;;6.90;;
26375;SDS011;30544;42.196;24.336;2023-03-01T00:26:16;7.55;;;6.13;;
26375;SDS011;30544;42.196;24.336;2023-03-01T00:28:45;5.90;;;4.70;;
26375;SDS011;30544;42.196;24.336;2023-03-01T00:31:13;9.05;;;6.38;;
26375;SDS011;30544;42.196;24.336;2023-03-01T00:33:41;8.88;;;5.75;;
26375;SDS011;30544;42.196;24.336;2023-03-01T00:36:09;9.00;;;6.35;;
26375;SDS011;30544;42.196;24.336;2023-03-01T00:38:39;8.82;;;6.55;;
26375;SDS011;30544;42.196;24.336;2023-03-01T00:41:07;7.25;;;5.57;;
26375;SDS011;30544;42.196;24.336;2023-03-01T00:43:35;10.77;;;6.80;;
26375;SDS011;30544;42.196;24.336;2023-03-01T00:46:05;7.43;;;5.90;;
26375;SDS011;30544;42.196;24.336;2023-03-01T00:48:34;8.68;;;6.20;;
26375;SDS011;30544;42.196;24.336;2023-03-01T00:51:04;8.90;;;6.38;;
26375;SDS011;30544;42.196;24.336;2023-03-01T00:53:32;7.15;;;5.90;;
26375;SDS011;30544;42.196;24.336;2023-03-01T00:55:59;9.90;;;7.60;;
26375;SDS011;30544;42.196;24.336;2023-03-01T00:58:25;10.38;;;7.93;;
26375;SDS011;30544;42.196;24.336;2023-03-01T01:00:52;11.30;;;8.27;;
26375;SDS011;30544;42.196;24.336;2023-03-01T01:03:20;11.90;;;8.32;;
26375;SDS011;30544;42.196;24.336;2023-03-01T01:05:49;10.40;;;8.60;;
26375;SDS011;30544;42.196;24.336;2023-03-01T01:08:17;11.32;;;9.07;;
26375;SDS011;30544;42.196;24.336;2023-03-01T01:10:43;13.57;;;9.75;;
26375;SDS011;30544;42.196;24.336;2023-03-01T01:13:10;16.50;;;10.38;;
26375;SDS011;30544;42.196;24.336;2023-03-01T01:15:38;12.40;;;9.20;;
26375;SDS011;30544;42.196;24.336;2023-03-01T01:18:05;14.13;;;10.45;;
26375;SDS011;30544;42.196;24.336;2023-03-01T01:20:34;17.33;;;11.75;;
26375;SDS011;30544;42.196;24.336;2023-03-01T01:23:01;14.23;;;10.48;;
26375;SDS011;30544;42.196;24.336;2023-03-01T01:25:28;15.63;;;11.38;;
26375;SDS011;30544;42.196;24.336;2023-03-01T01:27:55;21.33;;;14.05;;
26375;SDS011;30544;42.196;24.336;2023-03-01T01:30:22;14.63;;;11.18;;
26375;SDS011;30544;42.196;24.336;2023-03-01T01:32:49;14.32;;;10.07;;
26375;SDS011;30544;42.196;24.336;2023-03-01T01:35:15;13.57;;;10.60;;
26375;SDS011;30544;42.196;24.336;2023-03-01T01:37:44;15.35;;;11.20;;
26375;SDS011;30544;42.196;24.336;2023-03-01T01:40:11;15.52;;;10.95;;
26375;SDS011;30544;42.196;24.336;2023-03-01T01:42:39;15.63;;;11.07;;
26375;SDS011;30544;42.196;24.336;2023-03-01T01:47:53;22.88;;;15.02;;
26375;SDS011;30544;42.196;24.336;2023-03-01T01:50:23;17.55;;;12.55;;
26375;SDS011;30544;42.196;24.336;2023-03-01T01:52:53;19.45;;;13.30;;
26375;SDS011;30544;42.196;24.336;2023-03-01T01:55:21;22.55;;;16.30;;
26375;SDS011;30544;42.196;24.336;2023-03-01T01:57:53;21.17;;;14.38;;
26375;SDS011;30544;42.196;24.336;2023-03-01T02:00:24;19.20;;;14.48;;
26375;SDS011;30544;42.196;24.336;2023-03-01T02:02:54;18.00;;;14.07;;
26375;SDS011;30544;42.196;24.336;2023-03-01T02:05:26;21.15;;;15.13;;
26375;SDS011;30544;42.196;24.336;2023-03-01T02:08:02;21.85;;;15.10;;
26375;SDS011;30544;42.196;24.336;2023-03-01T02:10:29;21.08;;;15.50;;
26375;SDS011;30544;42.196;24.336;2023-03-01T02:13:00;20.48;;;13.80;;
26375;SDS011;30544;42.196;24.336;2023-03-01T02:15:27;26.67;;;15.43;;
26375;SDS011;30544;42.196;24.336;2023-03-01T02:17:58;22.00;;;14.80;;
26375;SDS011;30544;42.196;24.336;2023-03-01T02:20:28;23.13;;;15.70;;
26375;SDS011;30544;42.196;24.336;2023-03-01T02:23:03;26.98;;;18.30;;
26375;SDS011;30544;42.196;24.336;2023-03-01T02:25:34;36.72;;;20.50;;
26375;SDS011;30544;42.196;24.336;2023-03-01T02:28:08;28.52;;;19.52;;
26375;SDS011;30544;42.196;24.336;2023-03-01T02:30:38;28.73;;;19.05;;
26375;SDS011;30544;42.196;24.336;2023-03-01T02:33:26;28.30;;;19.23;;
26375;SDS011;30544;42.196;24.336;2023-03-01T02:35:52;30.35;;;19.40;;
26375;SDS011;30544;42.196;24.336;2023-03-01T02:38:21;22.60;;;15.57;;
26375;SDS011;30544;42.196;24.336;2023-03-01T02:40:49;21.83;;;14.80;;
26375;SDS011;30544;42.196;24.336;2023-03-01T02:43:16;24.90;;;16.05;;
26375;SDS011;30544;42.196;24.336;2023-03-01T02:45:49;25.88;;;17.85;;
26375;SDS011;30544;42.196;24.336;2023-03-01T02:48:17;27.65;;;19.10;;
26375;SDS011;30544;42.196;24.336;2023-03-01T02:50:50;26.98;;;18.38;;
26375;SDS011;30544;42.196;24.336;2023-03-01T02:53:27;32.42;;;21.67;;
26375;SDS011;30544;42.196;24.336;2023-03-01T02:56:02;30.83;;;20.95;;
26375;SDS011;30544;42.196;24.336;2023-03-01T02:58:29;28.23;;;19.75;;
26375;SDS011;30544;42.196;24.336;2023-03-01T03:00:57;24.45;;;18.38;;
26375;SDS011;30544;42.196;24.336;2023-03-01T03:03:25;23.95;;;17.73;;
26375;SDS011;30544;42.196;24.336;2023-03-01T03:05:52;28.05;;;20.38;;
26375;SDS011;30544;42.196;24.336;2023-03-01T03:08:19;23.33;;;17.35;;
26375;SDS011;30544;42.196;24.336;2023-03-01T03:10:48;20.83;;;16.08;;
26375;SDS011;30544;42.196;24.336;2023-03-01T03:13:15;22.52;;;16.83;;
26375;SDS011;30544;42.196;24.336;2023-03-01T03:15:43;27.75;;;20.27;;
26375;SDS011;30544;42.196;24.336;2023-03-01T03:18:12;26.52;;;18.25;;
26375;SDS011;30544;42.196;24.336;2023-03-01T03:20:41;26.50;;;19.58;;
26375;SDS011;30544;42.196;24.336;2023-03-01T03:23:10;23.02;;;16.83;;
26375;SDS011;30544;42.196;24.336;2023-03-01T03:25:37;24.48;;;17.08;;
26375;SDS011;30544;42.196;24.336;2023-03-01T03:28:04;23.80;;;16.70;;
26375;SDS011;30544;42.196;24.336;2023-03-01T03:30:36;24.75;;;17.15;;
26375;SDS011;30544;42.196;24.336;2023-03-01T03:33:04;28.50;;;19.50;;
26375;SDS011;30544;42.196;24.336;2023-03-01T03:35:34;28.83;;;17.33;;
26375;SDS011;30544;42.196;24.336;2023-03-01T03:40:41;24.27;;;15.10;;
26375;SDS011;30544;42.196;24.336;2023-03-01T03:43:09;20.75;;;14.60;;
26375;SDS011;30544;42.196;24.336;2023-03-01T03:45:39;22.67;;;15.35;;
26375;SDS011;30544;42.196;24.336;2023-03-01T03:48:07;21.65;;;14.50;;
26375;SDS011;30544;42.196;24.336;2023-03-01T03:50:37;28.30;;;17.65;;
26375;SDS011;30544;42.196;24.336;2023-03-01T03:53:05;26.13;;;16.50;;
26375;SDS011;30544;42.196;24.336;2023-03-01T03:55:34;24.50;;;15.70;;
26375;SDS011;30544;42.196;24.336;2023-03-01T03:58:04;32.30;;;18.45;;
26375;SDS011;30544;42.196;24.336;2023-03-01T04:00:33;27.45;;;17.27;;
26375;SDS011;30544;42.196;24.336;2023-03-01T04:03:00;26.20;;;17.58;;
26375;SDS011;30544;42.196;24.336;2023-03-01T04:05:28;24.80;;;16.67;;
26375;SDS011;30544;42.196;24.336;2023-03-01T04:07:56;30.25;;;20.15;;
26375;SDS011;30544;42.196;24.336;2023-03-01T04:10:32;33.20;;;21.77;;
26375;SDS011;30544;42.196;24.336;2023-03-01T04:13:03;29.38;;;18.80;;
26375;SDS011;30544;42.196;24.336;2023-03-01T04:15:30;36.28;;;24.02;;
26375;SDS011;30544;42.196;24.336;2023-03-01T04:17:58;37.25;;;24.45;;
26375;SDS011;30544;42.196;24.336;2023-03-01T04:20:27;43.25;;;25.27;;
26375;SDS011;30544;42.196;24.336;2023-03-01T04:23:00;37.80;;;22.95;;
26375;SDS011;30544;42.196;24.336;2023-03-01T04:25:35;38.40;;;23.52;;
26375;SDS011;30544;42.196;24.336;2023-03-01T04:28:03;40.22;;;25.45;;
26375;SDS011;30544;42.196;24.336;2023-03-01T04:30:30;36.45;;;23.77;;
26375;SDS011;30544;42.196;24.336;2023-03-01T04:33:01;35.28;;;22.58;;
26375;SDS011;30544;42.196;24.336;2023-03-01T04:35:29;38.58;;;25.13;;
26375;SDS011;30544;42.196;24.336;2023-03-01T04:37:56;49.53;;;29.77;;
26375;SDS011;30544;42.196;24.336;2023-03-01T04:40:24;42.63;;;26.60;;
26375;SDS011;30544;42.196;24.336;2023-03-01T04:42:51;43.38;;;28.63;;
26375;SDS011;30544;42.196;24.336;2023-03-01T04:45:18;42.45;;;28.27;;
26375;SDS011;30544;42.196;24.336;2023-03-01T04:47:45;50.00;;;32.67;;
26375;SDS011;30544;42.196;24.336;2023-03-01T04:50:13;54.92;;;34.17;;
26375;SDS011;30544;42.196;24.336;2023-03-01T04:52:42;55.88;;;32.95;;
26375;SDS011;30544;42.196;24.336;2023-03-01T04:55:09;51.05;;;32.05;;
26375;SDS011;30544;42.196;24.336;2023-03-01T04:57:38;48.72;;;30.08;;
26375;SDS011;30544;42.196;24.336;2023-03-01T05:00:08;51.47;;;30.90;;
26375;SDS011;30544;42.196;24.336;2023-03-01T05:02:49;42.40;;;28.02;;
26375;SDS011;30544;42.196;24.336;2023-03-01T05:05:23;60.17;;;32.72;;
26375;SDS011;30544;42.196;24.336;2023-03-01T05:07:52;50.22;;;29.70;;
26375;SDS011;30544;42.196;24.336;2023-03-01T05:10:20;50.72;;;28.83;;
26375;SDS011;30544;42.196;24.336;2023-03-01T05:12:49;42.88;;;27.92;;
26375;SDS011;30544;42.196;24.336;2023-03-01T05:15:18;36.95;;;24.85;;
26375;SDS011;30544;42.196;24.336;2023-03-01T05:17:46;43.63;;;27.15;;
26375;SDS011;30544;42.196;24.336;2023-03-01T05:20:14;40.75;;;25.02;;
26375;SDS011;30544;42.196;24.336;2023-03-01T05:22:41;46.58;;;26.75;;
26375;SDS011;30544;42.196;24.336;2023-03-01T05:25:07;55.28;;;31.48;;
26375;SDS011;30544;42.196;24.336;2023-03-01T05:27:34;57.75;;;34.22;;
26375;SDS011;30544;42.196;24.336;2023-03-01T05:30:03;49.97;;;28.15;;
26375;SDS011;30544;42.196;24.336;2023-03-01T05:32:39;41.75;;;26.35;;
26375;SDS011;30544;42.196;24.336;2023-03-01T05:35:08;79.00;;;37.75;;
26375;SDS011;30544;42.196;24.336;2023-03-01T05:37:38;51.97;;;28.92;;
26375;SDS011;30544;42.196;24.336;2023-03-01T05:40:07;57.13;;;34.53;;
26375;SDS011;30544;42.196;24.336;2023-03-01T05:42:43;46.58;;;24.52;;
26375;SDS011;30544;42.196;24.336;2023-03-01T05:45:12;56.25;;;29.35;;
26375;SDS011;30544;42.196;24.336;2023-03-01T05:47:40;51.63;;;30.20;;
26375;SDS011;30544;42.196;24.336;2023-03-01T05:50:10;43.80;;;24.77;;
26375;SDS011;30544;42.196;24.336;2023-03-01T05:52:38;41.40;;;25.35;;
26375;SDS011;30544;42.196;24.336;2023-03-01T05:55:05;46.42;;;26.00;;
26375;SDS011;30544;42.196;24.336;2023-03-01T05:57:33;44.28;;;26.48;;
26375;SDS011;30544;42.196;24.336;2023-03-01T06:00:00;40.40;;;26.42;;
26375;SDS011;30544;42.196;24.336;2023-03-01T06:02:28;44.38;;;27.50;;
26375;SDS011;30544;42.196;24.336;2023-03-01T06:04:55;37.92;;;24.88;;
26375;SDS011;30544;42.196;24.336;2023-03-01T06:07:22;31.83;;;22.63;;
26375;SDS011;30544;42.196;24.336;2023-03-01T06:09:48;39.75;;;26.73;;
26375;SDS011;30544;42.196;24.336;2023-03-01T06:12:15;40.45;;;24.40;;
26375;SDS011;30544;42.196;24.336;2023-03-01T06:14:42;29.02;;;20.08;;
26375;SDS011;30544;42.196;24.336;2023-03-01T06:17:09;28.25;;;20.67;;
26375;SDS011;30544;42.196;24.336;2023-03-01T06:19:37;29.50;;;19.35;;
26375;SDS011;30544;42.196;24.336;2023-03-01T06:22:04;30.73;;;20.30;;
26375;SDS011;30544;42.196;24.336;2023-03-01T06:24:30;33.88;;;21.27;;
26375;SDS011;30544;42.196;24.336;2023-03-01T06:26:58;35.30;;;22.70;;
26375;SDS011;30544;42.196;24.336;2023-03-01T06:29:25;38.33;;;23.92;;
26375;SDS011;30544;42.196;24.336;2023-03-01T06:31:51;37.78;;;24.20;;
26375;SDS011;30544;42.196;24.336;2023-03-01T06:34:18;31.08;;;20.10;;
26375;SDS011;30544;42.196;24.336;2023-03-01T06:36:48;29.00;;;19.85;;
26375;SDS011;30544;42.196;24.336;2023-03-01T06:39:15;32.92;;;22.42;;
26375;SDS011;30544;42.196;24.336;2023-03-01T06:41:42;34.92;;;24.60;;
26375;SDS011;30544;42.196;24.336;2023-03-01T06:44:09;40.30;;;25.60;;
26375;SDS011;30544;42.196;24.336;2023-03-01T06:46:36;37.20;;;25.70;;
26375;SDS011;30544;42.196;24.336;2023-03-01T06:49:03;44.28;;;28.80;;
26375;SDS011;30544;42.196;24.336;2023-03-01T06:51:34;46.95;;;31.58;;
26375;SDS011;30544;42.196;24.336;2023-03-01T06:54:03;43.95;;;30.58;;
26375;SDS011;30544;42.196;24.336;2023-03-01T06:56:30;44.58;;;30.27;;
26375;SDS011;30544;42.196;24.336;2023-03-01T06:58:57;47.67;;;29.80;;
26375;SDS011;30544;42.196;24.336;2023-03-01T07:01:24;40.67;;;26.52;;
26375;SDS011;30544;42.196;24.336;2023-03-01T07:03:51;42.97;;;28.63;;
26375;SDS011;30544;42.196;24.336;2023-03-01T07:06:18;57.35;;;35.22;;
26375;SDS011;30544;42.196;24.336;2023-03-01T07:08:45;52.55;;;31.33;;
26375;SDS011;30544;42.196;24.336;2023-03-01T07:11:13;52.17;;;33.47;;
26375;SDS011;30544;42.196;24.336;2023-03-01T07:13:40;55.05;;;35.90;;
26375;SDS011;30544;42.196;24.336;2023-03-01T07:16:07;43.35;;;28.67;;
26375;SDS011;30544;42.196;24.336;2023-03-01T07:18:34;50.10;;;30.40;;
26375;SDS011;30544;42.196;24.336;2023-03-01T07:21:03;56.25;;;34.75;;
26375;SDS011;30544;42.196;24.336;2023-03-01T07:23:31;48.47;;;30.63;;
26375;SDS011;30544;42.196;24.336;2023-03-01T07:25:58;54.50;;;34.33;;
26375;SDS011;30544;42.196;24.336;2023-03-01T07:28:26;55.78;;;31.98;;
26375;SDS011;30544;42.196;24.336;2023-03-01T07:30:53;48.53;;;30.95;;
26375;SDS011;30544;42.196;24.336;2023-03-01T07:33:20;71.05;;;40.00;;
26375;SDS011;30544;42.196;24.336;2023-03-01T07:35:47;65.30;;;39.35;;
26375;SDS011;30544;42.196;24.336;2023-03-01T07:38:14;49.65;;;26.67;;
26375;SDS011;30544;42.196;24.336;2023-03-01T07:40:41;51.05;;;31.77;;
26375;SDS011;30544;42.196;24.336;2023-03-01T07:43:07;42.85;;;27.48;;
26375;SDS011;30544;42.196;24.336;2023-03-01T07:45:35;48.80;;;30.50;;
26375;SDS011;30544;42.196;24.336;2023-03-01T07:48:02;33.40;;;21.63;;
26375;SDS011;30544;42.196;24.336;2023-03-01T07:50:29;34.10;;;22.23;;
26375;SDS011;30544;42.196;24.336;2023-03-01T07:52:56;31.52;;;21.55;;
26375;SDS011;30544;42.196;24.336;2023-03-01T07:55:23;40.78;;;25.02;;
26375;SDS011;30544;42.196;24.336;2023-03-01T07:57:49;39.55;;;25.73;;
26375;SDS011;30544;42.196;24.336;2023-03-01T08:00:16;35.70;;;24.23;;
26375;SDS011;30544;42.196;24.336;2023-03-01T08:02:45;57.40;;;35.47;;
26375;SDS011;30544;42.196;24.336;2023-03-01T08:05:14;69.35;;;39.95;;
26375;SDS011;30544;42.196;24.336;2023-03-01T08:07:41;62.65;;;40.45;;
26375;SDS011;30544;42.196;24.336;2023-03-01T08:10:08;87.65;;;52.53;;
26375;SDS011;30544;42.196;24.336;2023-03-01T08:12:37;124.88;;;78.03;;
26375;SDS011;30544;42.196;24.336;2023-03-01T08:15:04;122.63;;;78.28;;
26375;SDS011;30544;42.196;24.336;2023-03-01T08:17:31;69.53;;;41.60;;
26375;SDS011;30544;42.196;24.336;2023-03-01T08:20:00;62.08;;;40.38;;
26375;SDS011;30544;42.196;24.336;2023-03-01T08:22:31;51.97;;;33.30;;
26375;SDS011;30544;42.196;24.336;2023-03-01T08:24:58;40.13;;;28.13;;
26375;SDS011;30544;42.196;24.336;2023-03-01T08:27:24;37.40;;;24.95;;
26375;SDS011;30544;42.196;24.336;2023-03-01T08:29:51;32.60;;;22.42;;
26375;SDS011;30544;42.196;24.336;2023-03-01T08:32:18;38.53;;;25.05;;
26375;SDS011;30544;42.196;24.336;2023-03-01T08:34:46;38.78;;;25.88;;
26375;SDS011;30544;42.196;24.336;2023-03-01T08:37:14;39.20;;;26.88;;
26375;SDS011;30544;42.196;24.336;2023-03-01T08:39:40;53.28;;;34.97;;
26375;SDS011;30544;42.196;24.336;2023-03-01T08:42:07;39.25;;;27.10;;
26375;SDS011;30544;42.196;24.336;2023-03-01T08:44:34;30.50;;;21.60;;
26375;SDS011;30544;42.196;24.336;2023-03-01T08:47:01;40.08;;;26.65;;
26375;SDS011;30544;42.196;24.336;2023-03-01T08:49:29;51.17;;;30.42;;
26375;SDS011;30544;42.196;24.336;2023-03-01T08:51:57;37.05;;;22.13;;
26375;SDS011;30544;42.196;24.336;2023-03-01T08:54:25;26.75;;;17.55;;
26375;SDS011;30544;42.196;24.336;2023-03-01T08:56:52;25.63;;;16.10;;
26375;SDS011;30544;42.196;24.336;2023-03-01T08:59:19;25.30;;;14.52;;
26375;SDS011;30544;42.196;24.336;2023-03-01T09:01:46;29.42;;;17.70;;
26375;SDS011;30544;42.196;24.336;2023-03-01T09:04:14;33.17;;;19.25;;
26375;SDS011;30544;42.196;24.336;2023-03-01T09:06:41;34.42;;;21.75;;
26375;SDS011;30544;42.196;24.336;2023-03-01T09:09:11;38.88;;;24.77;;
26375;SDS011;30544;42.196;24.336;2023-03-01T09:11:42;40.47;;;25.85;;
26375;SDS011;30544;42.196;24.336;2023-03-01T09:14:11;51.92;;;30.20;;
26375;SDS011;30544;42.196;24.336;2023-03-01T09:16:38;27.08;;;19.38;;
26375;SDS011;30544;42.196;24.336;2023-03-01T09:19:04;24.85;;;17.27;;
26375;SDS011;30544;42.196;24.336;2023-03-01T09:21:31;31.70;;;20.60;;
26375;SDS011;30544;42.196;24.336;2023-03-01T09:23:58;32.53;;;20.92;;
26375;SDS011;30544;42.196;24.336;2023-03-01T09:26:25;32.33;;;20.02;;
26375;SDS011;30544;42.196;24.336;2023-03-01T09:28:53;24.40;;;16.52;;
26375;SDS011;30544;42.196;24.336;2023-03-01T09:31:22;23.45;;;16.77;;
26375;SDS011;30544;42.196;24.336;2023-03-01T09:33:51;31.98;;;19.25;;
26375;SDS011;30544;42.196;24.336;2023-03-01T09:36:19;32.88;;;20.48;;
26375;SDS011;30544;42.196;24.336;2023-03-01T09:38:47;25.77;;;18.88;;
26375;SDS011;30544;42.196;24.336;2023-03-01T09:41:18;34.22;;;21.65;;
26375;SDS011;30544;42.196;24.336;2023-03-01T09:44:05;34.97;;;24.70;;
26375;SDS011;30544;42.196;24.336;2023-03-01T09:46:37;22.15;;;14.13;;
26375;SDS011;30544;42.196;24.336;2023-03-01T09:49:10;37.90;;;21.50;;
26375;SDS011;30544;42.196;24.336;2023-03-01T09:51:42;34.53;;;22.83;;
26375;SDS011;30544;42.196;24.336;2023-03-01T09:54:14;47.33;;;25.98;;
26375;SDS011;30544;42.196;24.336;2023-03-01T09:56:43;35.80;;;20.20;;
26375;SDS011;30544;42.196;24.336;2023-03-01T09:59:22;28.25;;;18.13;;
26375;SDS011;30544;42.196;24.336;2023-03-01T10:01:55;25.15;;;16.02;;
26375;SDS011;30544;42.196;24.336;2023-03-01T10:04:32;26.88;;;18.20;;
26375;SDS011;30544;42.196;24.336;2023-03-01T10:07:14;28.77;;;19.20;;
26375;SDS011;30544;42.196;24.336;2023-03-01T10:09:49;28.15;;;19.10;;
26375;SDS011;30544;42.196;24.336;2023-03-01T10:12:16;26.30;;;16.58;;
26375;SDS011;30544;42.196;24.336;2023-03-01T10:14:51;24.85;;;15.48;;
26375;SDS011;30544;42.196;24.336;2023-03-01T10:17:25;33.33;;;21.45;;
26375;SDS011;30544;42.196;24.336;2023-03-01T10:19:56;37.83;;;22.17;;
26375;SDS011;30544;42.196;24.336;2023-03-01T10:22:36;22.23;;;15.85;;
26375;SDS011;30544;42.196;24.336;2023-03-01T10:25:03;33.83;;;19.23;;
26375;SDS011;30544;42.196;24.336;2023-03-01T10:27:34;26.10;;;15.23;;
26375;SDS011;30544;42.196;24.336;2023-03-01T10:30:09;28.85;;;16.40;;
26375;SDS011;30544;42.196;24.336;2023-03-01T10:32:44;29.52;;;16.35;;
26375;SDS011;30544;42.196;24.336;2023-03-01T10:35:17;24.92;;;17.05;;
26375;SDS011;30544;42.196;24.336;2023-03-01T10:37:56;35.42;;;19.77;;
26375;SDS011;30544;42.196;24.336;2023-03-01T10:40:24;25.50;;;16.58;;
26375;SDS011;30544;42.196;24.336;2023-03-01T10:42:51;27.83;;;16.52;;
26375;SDS011;30544;42.196;24.336;2023-03-01T10:45:26;54.88;;;26.48;;
26375;SDS011;30544;42.196;24.336;2023-03-01T10:48:11;34.30;;;21.00;;
26375;SDS011;30544;42.196;24.336;2023-03-01T10:50:40;31.67;;;20.60;;
26375;SDS011;30544;42.196;24.336;2023-03-01T10:53:18;39.80;;;24.23;;
26375;SDS011;30544;42.196;24.336;2023-03-01T10:55:56;32.55;;;21.17;;
26375;SDS011;30544;42.196;24.336;2023-03-01T10:58:25;31.02;;;20.95;;
26375;SDS011;30544;42.196;24.336;2023-03-01T11:00:53;32.25;;;20.50;;
26375;SDS011;30544;42.196;24.336;2023-03-01T11:03:23;34.20;;;23.85;;
26375;SDS011;30544;42.196;24.336;2023-03-01T11:05:52;39.85;;;24.90;;
26375;SDS011;30544;42.196;24.336;2023-03-01T11:08:34;44.38;;;28.20;;
26375;SDS011;30544;42.196;24.336;2023-03-01T11:11:04;34.13;;;23.27;;
26375;SDS011;30544;42.196;24.336;2023-03-01T11:13:33;34.80;;;20.80;;
26375;SDS011;30544;42.196;24.336;2023-03-01T11:16:03;33.17;;;19.42;;
26375;SDS011;30544;42.196;24.336;2023-03-01T11:18:33;33.30;;;20.63;;
26375;SDS011;30544;42.196;24.336;2023-03-01T11:20:59;29.58;;;19.27;;
26375;SDS011;30544;42.196;24.336;2023-03-01T11:23:28;31.65;;;17.90;;
26375;SDS011;30544;42.196;24.336;2023-03-01T11:25:58;25.63;;;18.58;;
26375;SDS011;30544;42.196;24.336;2023-03-01T11:28:28;28.05;;;20.02;;
26375;SDS011;30544;42.196;24.336;2023-03-01T11:30:57;27.80;;;19.17;;
26375;SDS011;30544;42.196;24.336;2023-03-01T11:33:33;24.58;;;16.27;;
26375;SDS011;30544;42.196;24.336;2023-03-01T11:36:05;20.75;;;14.00;;
26375;SDS011;30544;42.196;24.336;2023-03-01T11:38:39;20.83;;;14.38;;
26375;SDS011;30544;42.196;24.336;2023-03-01T11:41:08;20.58;;;15.52;;
26375;SDS011;30544;42.196;24.336;2023-03-01T11:43:41;18.38;;;13.50;;
26375;SDS011;30544;42.196;24.336;2023-03-01T11:46:31;27.92;;;16.48;;
26375;SDS011;30544;42.196;24.336;2023-03-01T11:49:19;21.77;;;14.95;;
26375;SDS011;30544;42.196;24.336;2023-03-01T11:52:01;25.17;;;16.70;;
26375;SDS011;30544;42.196;24.336;2023-03-01T11:54:37;30.85;;;18.10;;
26375;SDS011;30544;42.196;24.336;2023-03-01T11:57:19;34.65;;;19.23;;
26375;SDS011;30544;42.196;24.336;2023-03-01T12:03:15;22.63;;;15.73;;
26375;SDS011;30544;42.196;24.336;2023-03-01T12:06:00;27.25;;;15.65;;
26375;SDS011;30544;42.196;24.336;2023-03-01T12:08:49;22.93;;;13.80;;
26375;SDS011;30544;42.196;24.336;2023-03-01T12:11:28;16.88;;;12.93;;
26375;SDS011;30544;42.196;24.336;2023-03-01T12:14:10;21.35;;;12.68;;
26375;SDS011;30544;42.196;24.336;2023-03-01T12:16:59;26.42;;;15.02;;
26375;SDS011;30544;42.196;24.336;2023-03-01T12:19:45;23.40;;;15.98;;
26375;SDS011;30544;42.196;24.336;2023-03-01T12:22:30;23.48;;;15.50;;
26375;SDS011;30544;42.196;24.336;2023-03-01T12:25:17;25.13;;;15.55;;
26375;SDS011;30544;42.196;24.336;2023-03-01T12:28:10;24.05;;;14.48;;
26375;SDS011;30544;42.196;24.336;2023-03-01T12:30:50;30.08;;;18.75;;
26375;SDS011;30544;42.196;24.336;2023-03-01T12:33:33;26.27;;;14.95;;
26375;SDS011;30544;42.196;24.336;2023-03-01T12:36:14;23.88;;;11.55;;
26375;SDS011;30544;42.196;24.336;2023-03-01T12:38:55;20.58;;;11.82;;
26375;SDS011;30544;42.196;24.336;2023-03-01T12:41:37;16.10;;;10.98;;
26375;SDS011;30544;42.196;24.336;2023-03-01T12:44:20;16.02;;;10.88;;
26375;SDS011;30544;42.196;24.336;2023-03-01T12:49:47;19.05;;;12.18;;
26375;SDS011;30544;42.196;24.336;2023-03-01T12:52:20;23.90;;;14.35;;
26375;SDS011;30544;42.196;24.336;2023-03-01T12:54:52;25.40;;;14.82;;
26375;SDS011;30544;42.196;24.336;2023-03-01T12:57:25;29.90;;;17.15;;
26375;SDS011;30544;42.196;24.336;2023-03-01T13:00:06;23.88;;;14.43;;
26375;SDS011;30544;42.196;24.336;2023-03-01T13:02:49;22.70;;;13.55;;
26375;SDS011;30544;42.196;24.336;2023-03-01T13:05:26;23.30;;;13.13;;
26375;SDS011;30544;42.196;24.336;2023-03-01T13:08:03;23.85;;;15.38;;
26375;SDS011;30544;42.196;24.336;2023-03-01T13:10:41;30.63;;;19.17;;
26375;SDS011;30544;42.196;24.336;2023-03-01T13:13:14;27.85;;;17.50;;
26375;SDS011;30544;42.196;24.336;2023-03-01T13:15:45;24.70;;;16.20;;
26375;SDS011;30544;42.196;24.336;2023-03-01T13:18:32;24.90;;;15.45;;
26375;SDS011;30544;42.196;24.336;2023-03-01T13:21:00;23.85;;;15.40;;
26375;SDS011;30544;42.196;24.336;2023-03-01T13:23:30;22.88;;;16.90;;
26375;SDS011;30544;42.196;24.336;2023-03-01T13:26:06;20.63;;;14.07;;
26375;SDS011;30544;42.196;24.336;2023-03-01T13:28:40;25.77;;;16.70;;
26375;SDS011;30544;42.196;24.336;2023-03-01T13:34:40;21.25;;;15.68;;
26375;SDS011;30544;42.196;24.336;2023-03-01T13:37:09;21.83;;;14.63;;
26375;SDS011;30544;42.196;24.336;2023-03-01T13:39:44;20.58;;;13.50;;
26375;SDS011;30544;42.196;24.336;2023-03-01T13:47:45;28.88;;;19.10;;
26375;SDS011;30544;42.196;24.336;2023-03-01T13:50:18;27.10;;;17.55;;
26375;SDS011;30544;42.196;24.336;2023-03-01T13:52:48;19.85;;;13.50;;
26375;SDS011;30544;42.196;24.336;2023-03-01T13:55:19;18.35;;;12.75;;
26375;SDS011;30544;42.196;24.336;2023-03-01T13:57:52;22.73;;;13.50;;
26375;SDS011;30544;42.196;24.336;2023-03-01T14:00:26;20.10;;;14.45;;
26375;SDS011;30544;42.196;24.336;2023-03-01T14:03:02;22.00;;;14.85;;
26375;SDS011;30544;42.196;24.336;2023-03-01T14:05:31;25.65;;;17.52;;
26375;SDS011;30544;42.196;24.336;2023-03-01T14:07:58;35.33;;;22.42;;
26375;SDS011;30544;42.196;24.336;2023-03-01T14:10:25;46.30;;;29.15;;
26375;SDS011;30544;42.196;24.336;2023-03-01T14:13:01;36.70;;;23.80;;
26375;SDS011;30544;42.196;24.336;2023-03-01T14:15:36;42.25;;;26.10;;
26375;SDS011;30544;42.196;24.336;2023-03-01T14:18:10;36.22;;;23.02;;
26375;SDS011;30544;42.196;24.336;2023-03-01T14:20:41;36.25;;;23.20;;
26375;SDS011;30544;42.196;24.336;2023-03-01T14:23:11;25.65;;;15.55;;
26375;SDS011;30544;42.196;24.336;2023-03-01T14:25:45;27.50;;;17.38;;
26375;SDS011;30544;42.196;24.336;2023-03-01T14:28:17;21.98;;;16.30;;
26375;SDS011;30544;42.196;24.336;2023-03-01T14:30:46;18.48;;;13.18;;
26375;SDS011;30544;42.196;24.336;2023-03-01T14:33:19;21.77;;;13.80;;
26375;SDS011;30544;42.196;24.336;2023-03-01T14:35:55;21.33;;;15.70;;
26375;SDS011;30544;42.196;24.336;2023-03-01T14:38:28;22.13;;;16.33;;
26375;SDS011;30544;42.196;24.336;2023-03-01T14:41:01;33.38;;;20.05;;
26375;SDS011;30544;42.196;24.336;2023-03-01T14:43:32;20.48;;;14.65;;
26375;SDS011;30544;42.196;24.336;2023-03-01T14:46:00;24.45;;;16.58;;
26375;SDS011;30544;42.196;24.336;2023-03-01T14:48:27;24.35;;;16.92;;
26375;SDS011;30544;42.196;24.336;2023-03-01T14:50:55;21.05;;;13.48;;